Terminal Aerodrome Forecast
Issued by NWS Portland, ME

Home | Current Version | Previous Version | Text Only | Print | Product List | Glossary On
Versions: 1 2 3 4 5 6 7 8 9 10 11 12 13 14 15 16 17 18 19 20
000
FTUS41 KGYX 022038 AAA
TAFCON
TAF AMD
KCON 022038Z 0221/0318 29010KT P6SM SCT060
     FM022300 VRB03KT P6SM SCT250
     FM031500 30007KT P6SM SKC=

USA.gov is the U.S. government's official web portal to all federal, state and local government web resources and services.